createdAt,value
2022-10-31T00:01:20.262Z,4.50
2022-10-31T00:03:50.372Z,4.50
2022-10-31T00:06:19.581Z,4.07
2022-10-31T00:08:48.285Z,3.88
2022-10-31T00:11:16.490Z,4.20
2022-10-31T00:13:44.753Z,4.60
2022-10-31T00:16:17.209Z,4.18
2022-10-31T00:18:45.869Z,4.50
2022-10-31T00:21:16.740Z,4.40
2022-10-31T00:23:44.969Z,3.78
2022-10-31T00:26:13.528Z,3.88
2022-10-31T00:28:41.727Z,3.58
2022-10-31T00:31:11.303Z,4.28
2022-10-31T00:33:40.911Z,3.38
2022-10-31T00:36:12.638Z,3.90
2022-10-31T00:38:42.370Z,4.53
2022-10-31T00:41:11.078Z,3.67
2022-10-31T00:43:39.333Z,4.88
2022-10-31T00:46:07.575Z,4.40
2022-10-31T00:48:35.830Z,4.28
2022-10-31T00:51:04.125Z,4.60
2022-10-31T00:53:32.343Z,5.20
2022-10-31T00:56:02.204Z,5.72
2022-10-31T00:58:30.479Z,5.45
2022-10-31T01:00:58.746Z,5.82
2022-10-31T01:03:28.808Z,5.82
2022-10-31T01:06:02.197Z,5.28
2022-10-31T01:08:30.724Z,5.45
2022-10-31T01:11:06.168Z,5.22
2022-10-31T01:13:34.810Z,5.82
2022-10-31T01:16:03.896Z,5.78
2022-10-31T01:18:33.282Z,5.35
2022-10-31T01:21:06.721Z,5.15
2022-10-31T01:23:35.678Z,5.28
2022-10-31T01:26:08.700Z,4.57
2022-10-31T01:28:38.774Z,4.70
2022-10-31T01:31:09.154Z,4.38
2022-10-31T01:33:38.256Z,4.95
2022-10-31T01:36:14.426Z,5.43
2022-10-31T01:38:42.633Z,5.18
2022-10-31T01:41:14.011Z,6.28
2022-10-31T01:43:47.670Z,6.78
2022-10-31T01:46:18.254Z,5.95
2022-10-31T01:48:46.597Z,6.53
2022-10-31T01:51:16.900Z,6.68
2022-10-31T01:53:47.134Z,6.75
2022-10-31T01:56:18.733Z,5.47
2022-10-31T01:58:48.553Z,6.20
2022-10-31T02:01:18.344Z,6.38
2022-10-31T02:03:48.652Z,5.15
2022-10-31T02:06:28.539Z,5.97
2022-10-31T02:08:58.096Z,6.38
2022-10-31T02:11:29.862Z,5.10
2022-10-31T02:13:58.812Z,7.10
2022-10-31T02:16:27.094Z,6.35
2022-10-31T02:18:56.322Z,6.30
2022-10-31T02:21:29.179Z,6.00
2022-10-31T02:24:27.847Z,5.90
2022-10-31T02:27:07.758Z,5.38
2022-10-31T02:30:05.405Z,5.70
2022-10-31T02:32:58.709Z,6.07
2022-10-31T02:35:42.744Z,6.25
2022-10-31T02:38:20.625Z,6.43
2022-10-31T02:40:55.277Z,6.60
2022-10-31T02:43:29.541Z,6.45
2022-10-31T02:46:05.167Z,7.00
2022-10-31T02:48:39.832Z,6.65
2022-10-31T02:51:09.900Z,6.15
2022-10-31T02:53:38.889Z,6.68
2022-10-31T02:56:10.944Z,6.50
2022-10-31T02:58:43.856Z,6.70
2022-10-31T03:01:42.697Z,6.30
2022-10-31T03:04:38.865Z,6.05
2022-10-31T03:07:18.680Z,6.38
2022-10-31T03:09:55.990Z,5.85
2022-10-31T03:12:30.134Z,5.78
2022-10-31T03:15:06.307Z,5.95
2022-10-31T03:17:38.909Z,6.50
2022-10-31T03:20:11.820Z,5.95
2022-10-31T03:22:44.597Z,6.20
2022-10-31T03:25:15.476Z,6.28
2022-10-31T03:27:45.349Z,6.03
2022-10-31T03:30:15.234Z,5.70
2022-10-31T03:32:47.908Z,5.75
2022-10-31T03:35:22.115Z,5.95
2022-10-31T03:37:51.997Z,5.47
2022-10-31T03:40:22.831Z,5.82
2022-10-31T03:42:58.575Z,6.60
2022-10-31T03:45:29.302Z,6.13
2022-10-31T03:47:58.656Z,6.40
2022-10-31T03:50:35.509Z,6.03
2022-10-31T03:53:11.832Z,5.85
2022-10-31T03:55:43.523Z,6.13
2022-10-31T03:58:14.963Z,5.75
2022-10-31T04:00:46.813Z,5.63
2022-10-31T04:03:19.345Z,6.35
2022-10-31T04:05:51.397Z,5.53
2022-10-31T04:08:23.964Z,6.22
2022-10-31T04:10:53.448Z,5.97
2022-10-31T04:13:25.378Z,6.18
2022-10-31T04:15:56.136Z,5.50
2022-10-31T04:18:25.554Z,5.95
2022-10-31T04:21:04.699Z,6.90
2022-10-31T04:23:34.341Z,6.20
2022-10-31T04:26:02.639Z,6.00
2022-10-31T04:28:31.100Z,6.38
2022-10-31T04:30:59.272Z,6.07
2022-10-31T04:33:27.462Z,7.25
2022-10-31T04:35:55.638Z,8.40
2022-10-31T04:38:25.301Z,7.68
2022-10-31T04:40:53.486Z,7.78
2022-10-31T04:43:21.721Z,8.10
2022-10-31T04:45:49.946Z,7.40
2022-10-31T04:48:18.772Z,7.53
2022-10-31T04:50:46.976Z,6.95
2022-10-31T04:53:15.285Z,6.53
2022-10-31T04:55:44.833Z,7.35
2022-10-31T04:58:13.091Z,7.80
2022-10-31T05:00:41.396Z,6.93
2022-10-31T05:03:09.669Z,13.45
2022-10-31T05:05:37.927Z,9.00
2022-10-31T05:08:06.614Z,8.75
2022-10-31T05:10:34.831Z,7.93
2022-10-31T05:13:06.238Z,7.70
2022-10-31T05:15:34.995Z,6.68
2022-10-31T05:18:03.559Z,7.07
2022-10-31T05:20:33.099Z,6.85
2022-10-31T05:23:02.167Z,7.82
2022-10-31T05:25:30.993Z,6.80
2022-10-31T05:27:59.463Z,7.63
2022-10-31T05:30:31.348Z,7.80
2022-10-31T05:33:00.528Z,7.32
2022-10-31T05:35:31.202Z,7.43
2022-10-31T05:37:59.778Z,8.70
2022-10-31T05:40:29.410Z,9.45
2022-10-31T05:43:00.130Z,17.38
2022-10-31T05:45:29.942Z,16.55
2022-10-31T05:47:59.955Z,37.58
2022-10-31T05:50:30.252Z,23.60
2022-10-31T05:53:00.461Z,13.85
2022-10-31T05:55:28.926Z,8.57
2022-10-31T05:57:57.875Z,7.20
2022-10-31T06:00:27.587Z,6.50
2022-10-31T06:03:02.290Z,5.95
2022-10-31T06:05:30.799Z,7.20
2022-10-31T06:07:59.684Z,8.15
2022-10-31T06:10:28.831Z,7.53
2022-10-31T06:12:57.191Z,7.78
2022-10-31T06:15:25.466Z,9.00
2022-10-31T06:18:03.241Z,8.45
2022-10-31T06:20:31.878Z,8.55
2022-10-31T06:23:00.561Z,8.18
2022-10-31T06:25:29.156Z,7.50
2022-10-31T06:27:58.055Z,7.80
2022-10-31T06:30:26.426Z,7.55
2022-10-31T06:32:54.677Z,8.18
2022-10-31T06:35:24.289Z,7.68
2022-10-31T06:37:55.804Z,7.93
2022-10-31T06:40:24.487Z,8.43
2022-10-31T06:42:59.245Z,8.25
2022-10-31T06:45:28.160Z,8.20
2022-10-31T06:48:15.965Z,7.68
2022-10-31T06:50:46.140Z,5.55
2022-10-31T06:53:15.175Z,5.13
2022-10-31T06:55:43.988Z,5.07
2022-10-31T06:58:13.380Z,4.93
2022-10-31T07:00:41.680Z,4.53
2022-10-31T07:03:12.814Z,4.57
2022-10-31T07:05:41.724Z,4.95
2022-10-31T07:08:12.953Z,4.63
2022-10-31T07:10:42.806Z,4.90
2022-10-31T07:13:14.770Z,5.38
2022-10-31T07:15:44.535Z,5.60
2022-10-31T07:18:14.246Z,4.57
2022-10-31T07:20:43.047Z,16.23
2022-10-31T07:23:13.689Z,12.68
2022-10-31T07:25:42.123Z,8.13
2022-10-31T07:28:11.025Z,5.10
2022-10-31T07:30:39.656Z,5.45
2022-10-31T07:33:08.424Z,4.60
2022-10-31T07:35:36.653Z,5.10
2022-10-31T07:38:16.503Z,4.57
2022-10-31T07:40:45.116Z,5.40
2022-10-31T07:43:14.959Z,5.97
2022-10-31T07:45:43.253Z,6.38
2022-10-31T07:48:11.500Z,6.45
2022-10-31T07:50:40.309Z,5.95
2022-10-31T07:53:12.824Z,5.25
2022-10-31T07:55:42.576Z,5.87
2022-10-31T07:58:12.285Z,5.63
2022-10-31T08:00:41.902Z,5.75
2022-10-31T08:03:11.899Z,6.18
2022-10-31T08:05:41.911Z,5.57
2022-10-31T08:08:10.744Z,5.47
2022-10-31T08:10:39.017Z,5.45
2022-10-31T08:13:10.611Z,5.22
2022-10-31T08:15:41.043Z,5.00
2022-10-31T08:18:13.149Z,5.68
2022-10-31T08:20:41.872Z,5.35
2022-10-31T08:23:12.246Z,6.78
2022-10-31T08:25:40.595Z,9.82
2022-10-31T08:28:12.419Z,7.25
2022-10-31T08:30:42.026Z,10.93
2022-10-31T08:33:13.044Z,6.82
2022-10-31T08:35:41.685Z,6.70
2022-10-31T08:38:11.517Z,7.85
2022-10-31T08:40:40.160Z,12.35
2022-10-31T08:43:14.597Z,11.05
2022-10-31T08:45:43.424Z,6.80
2022-10-31T08:48:13.750Z,5.88
2022-10-31T08:50:42.802Z,5.43
2022-10-31T08:53:14.688Z,6.07
2022-10-31T08:55:43.402Z,5.38
2022-10-31T08:58:15.572Z,5.10
2022-10-31T09:00:44.506Z,5.07
2022-10-31T09:03:14.694Z,4.53
2022-10-31T09:05:43.137Z,5.28
2022-10-31T09:08:15.973Z,5.13
2022-10-31T09:10:45.820Z,4.85
2022-10-31T09:13:17.136Z,5.90
2022-10-31T09:15:46.691Z,5.80
2022-10-31T09:18:16.319Z,5.20
2022-10-31T09:20:46.979Z,4.82
2022-10-31T09:23:18.804Z,5.07
2022-10-31T09:25:50.380Z,5.13
2022-10-31T09:28:22.494Z,5.03
2022-10-31T09:30:52.111Z,4.82
2022-10-31T09:33:20.638Z,4.93
2022-10-31T09:35:48.961Z,4.53
2022-10-31T09:38:20.144Z,4.88
2022-10-31T09:40:51.259Z,4.13
2022-10-31T09:43:29.607Z,4.63
2022-10-31T09:46:06.992Z,4.38
2022-10-31T09:48:51.405Z,4.15
2022-10-31T09:51:22.177Z,4.43
2022-10-31T09:53:54.521Z,4.53
2022-10-31T09:56:24.771Z,4.15
2022-10-31T09:58:59.225Z,4.70
2022-10-31T10:01:43.530Z,3.90
2022-10-31T10:04:28.115Z,4.18
2022-10-31T10:06:56.497Z,4.43
2022-10-31T10:09:28.312Z,4.43
2022-10-31T10:12:09.444Z,4.13
2022-10-31T10:14:53.499Z,4.60
2022-10-31T10:17:34.106Z,4.13
2022-10-31T10:20:15.010Z,4.68
2022-10-31T10:22:52.867Z,4.82
2022-10-31T10:25:25.418Z,4.53
2022-10-31T10:28:05.638Z,6.00
2022-10-31T10:30:41.615Z,5.25
2022-10-31T10:33:15.164Z,5.32
2022-10-31T10:35:48.488Z,5.95
2022-10-31T10:38:22.753Z,5.03
2022-10-31T10:40:51.463Z,4.80
2022-10-31T10:43:25.279Z,5.00
2022-10-31T10:46:26.374Z,4.93
2022-10-31T10:49:01.314Z,5.72
2022-10-31T10:54:52.659Z,6.00
2022-10-31T10:57:45.703Z,5.63
2022-10-31T11:00:20.594Z,5.50
2022-10-31T11:02:50.561Z,5.70
2022-10-31T11:05:27.392Z,6.55
2022-10-31T11:07:55.657Z,6.82
2022-10-31T11:10:24.178Z,5.88
2022-10-31T11:13:18.476Z,6.50
2022-10-31T11:15:55.884Z,5.85
2022-10-31T11:18:29.199Z,5.30
2022-10-31T11:20:59.285Z,5.85
2022-10-31T11:23:28.950Z,5.82
2022-10-31T11:25:59.634Z,5.70
2022-10-31T11:28:30.315Z,6.75
2022-10-31T11:31:01.280Z,9.43
2022-10-31T11:33:34.444Z,11.05
2022-10-31T11:36:03.951Z,9.68
2022-10-31T11:38:42.535Z,9.82
2022-10-31T11:41:15.621Z,9.90
2022-10-31T11:43:50.496Z,8.60
2022-10-31T11:46:23.541Z,5.75
2022-10-31T11:51:24.411Z,4.60
2022-10-31T11:53:58.197Z,4.80
2022-10-31T11:56:39.349Z,4.45
2022-10-31T11:59:17.826Z,4.80
2022-10-31T12:01:50.781Z,5.22
2022-10-31T12:06:51.112Z,4.65
2022-10-31T12:09:24.158Z,5.45
2022-10-31T12:14:38.729Z,4.68
2022-10-31T12:17:14.121Z,5.07
2022-10-31T12:19:53.899Z,5.05
2022-10-31T12:22:32.268Z,5.72
2022-10-31T12:25:20.109Z,5.60
2022-10-31T12:28:17.984Z,4.95
2022-10-31T12:30:56.807Z,5.85
2022-10-31T12:33:49.348Z,5.25
2022-10-31T12:36:40.792Z,5.60
2022-10-31T12:39:25.695Z,5.50
2022-10-31T12:41:56.325Z,5.63
2022-10-31T12:44:57.213Z,5.57
2022-10-31T12:47:44.663Z,5.30
2022-10-31T12:50:27.776Z,5.47
2022-10-31T12:53:09.229Z,5.72
2022-10-31T12:55:47.997Z,5.55
2022-10-31T12:58:26.433Z,5.60
2022-10-31T13:01:04.587Z,5.50
2022-10-31T13:03:38.182Z,5.43
2022-10-31T13:06:10.210Z,5.10
2022-10-31T13:08:44.024Z,5.03
2022-10-31T13:11:16.134Z,5.53
2022-10-31T13:13:49.630Z,5.50
2022-10-31T13:16:20.605Z,5.53
2022-10-31T13:18:54.720Z,5.50
2022-10-31T13:21:27.269Z,5.78
2022-10-31T13:24:01.135Z,5.50
2022-10-31T13:26:38.962Z,5.20
2022-10-31T13:29:17.239Z,4.88
2022-10-31T13:31:45.910Z,6.40
2022-10-31T13:34:24.396Z,4.85
2022-10-31T13:37:04.138Z,5.25
2022-10-31T13:39:55.742Z,4.47
2022-10-31T13:42:31.331Z,5.28
2022-10-31T13:45:14.113Z,5.80
2022-10-31T13:47:44.497Z,5.95
2022-10-31T13:50:25.774Z,5.80
2022-10-31T13:52:54.125Z,6.07
2022-10-31T13:55:41.088Z,6.43
2022-10-31T13:58:26.884Z,5.78
2022-10-31T14:01:18.366Z,6.28
2022-10-31T14:04:12.265Z,6.05
2022-10-31T14:06:41.945Z,7.13
2022-10-31T14:09:22.735Z,6.05
2022-10-31T14:11:53.281Z,5.88
2022-10-31T14:14:23.051Z,5.38
2022-10-31T14:16:57.542Z,5.30
2022-10-31T14:19:26.792Z,6.35
2022-10-31T14:21:55.161Z,5.07
2022-10-31T14:24:36.604Z,5.35
2022-10-31T14:27:21.921Z,4.93
2022-10-31T14:29:50.789Z,5.18
2022-10-31T14:32:24.416Z,5.55
2022-10-31T14:34:57.672Z,4.03
2022-10-31T14:37:40.914Z,3.53
2022-10-31T14:40:32.799Z,3.75
2022-10-31T14:43:28.074Z,4.38
2022-10-31T14:46:02.989Z,4.53
2022-10-31T14:48:54.185Z,4.68
2022-10-31T14:51:24.597Z,4.22
2022-10-31T14:53:55.493Z,3.80
2022-10-31T14:56:27.419Z,4.22
2022-10-31T14:58:59.818Z,4.15
2022-10-31T15:01:30.362Z,5.15
2022-10-31T15:04:22.323Z,4.35
2022-10-31T15:06:54.831Z,3.72
2022-10-31T15:09:25.076Z,4.22
2022-10-31T15:11:53.287Z,4.35
2022-10-31T15:14:28.431Z,4.22
2022-10-31T15:16:58.713Z,3.85
2022-10-31T15:19:29.341Z,5.15
2022-10-31T15:21:59.215Z,4.35
2022-10-31T15:24:32.564Z,4.20
2022-10-31T15:27:04.963Z,4.68
2022-10-31T15:29:34.967Z,5.65
2022-10-31T15:32:17.924Z,4.88
2022-10-31T15:34:46.970Z,4.30
2022-10-31T15:37:17.060Z,4.03
2022-10-31T15:39:46.429Z,4.45
2022-10-31T15:42:22.671Z,5.05
2022-10-31T15:44:56.110Z,4.80
2022-10-31T15:47:25.876Z,4.93
2022-10-31T15:49:56.337Z,4.82
2022-10-31T15:52:30.988Z,5.25
2022-10-31T15:55:02.342Z,4.30
2022-10-31T15:57:31.322Z,5.22
2022-10-31T16:00:01.123Z,4.55
2022-10-31T16:02:30.008Z,4.28
2022-10-31T16:05:01.560Z,3.28
2022-10-31T16:07:31.226Z,4.53
2022-10-31T16:10:01.302Z,3.90
2022-10-31T16:12:35.965Z,4.32
2022-10-31T16:15:08.929Z,4.20
2022-10-31T16:17:37.256Z,4.13
2022-10-31T16:20:08.317Z,4.00
2022-10-31T16:22:38.597Z,3.58
2022-10-31T16:25:12.386Z,4.10
2022-10-31T16:27:41.833Z,4.07
2022-10-31T16:30:43.933Z,4.60
2022-10-31T16:33:30.255Z,4.18
2022-10-31T16:36:15.601Z,5.75
2022-10-31T16:38:51.071Z,4.68
2022-10-31T16:41:19.307Z,5.55
2022-10-31T16:43:52.189Z,5.35
2022-10-31T16:46:26.156Z,4.95
2022-10-31T16:48:54.806Z,5.20
2022-10-31T16:51:23.446Z,4.95
2022-10-31T16:53:54.199Z,4.35
2022-10-31T16:56:28.257Z,5.10
2022-10-31T16:58:56.483Z,4.97
2022-10-31T17:01:26.819Z,6.75
2022-10-31T17:03:55.108Z,6.22
2022-10-31T17:06:23.359Z,6.22
2022-10-31T17:08:51.536Z,6.03
2022-10-31T17:11:23.805Z,5.63
2022-10-31T17:13:52.458Z,5.82
2022-10-31T17:16:20.744Z,5.25
2022-10-31T17:18:50.403Z,5.50
2022-10-31T17:21:21.471Z,6.78
2022-10-31T17:23:59.053Z,17.88
2022-10-31T17:26:30.468Z,9.98
2022-10-31T17:29:03.668Z,7.25
2022-10-31T17:31:34.478Z,5.40
2022-10-31T17:34:05.305Z,5.35
2022-10-31T17:36:34.360Z,5.38
2022-10-31T17:39:06.026Z,6.55
2022-10-31T17:41:34.787Z,6.40
2022-10-31T17:44:03.538Z,5.70
2022-10-31T17:46:31.907Z,7.00
2022-10-31T17:49:01.410Z,29.27
2022-10-31T17:51:31.287Z,17.85
2022-10-31T17:54:00.084Z,10.00
2022-10-31T17:56:28.293Z,7.45
2022-10-31T17:58:57.946Z,6.43
2022-10-31T18:01:26.311Z,7.60
2022-10-31T18:03:54.638Z,6.53
2022-10-31T18:06:24.511Z,5.22
2022-10-31T18:08:56.126Z,4.85
2022-10-31T18:11:24.513Z,4.40
2022-10-31T18:13:56.661Z,4.85
2022-10-31T18:16:25.566Z,4.95
2022-10-31T18:18:56.120Z,5.68
2022-10-31T18:21:24.306Z,4.57
2022-10-31T18:23:56.993Z,4.70
2022-10-31T18:26:26.299Z,4.47
2022-10-31T18:28:54.809Z,4.63
2022-10-31T18:31:23.126Z,4.40
2022-10-31T18:33:54.131Z,5.10
2022-10-31T18:36:22.357Z,4.93
2022-10-31T18:38:50.598Z,4.95
2022-10-31T18:41:20.244Z,5.45
2022-10-31T18:43:48.462Z,4.68
2022-10-31T18:46:18.389Z,5.75
2022-10-31T18:48:47.239Z,5.45
2022-10-31T18:51:18.361Z,5.20
2022-10-31T18:53:52.911Z,5.05
2022-10-31T18:56:23.163Z,4.95
2022-10-31T18:58:51.749Z,5.18
2022-10-31T19:01:21.228Z,5.45
2022-10-31T19:03:55.262Z,5.18
2022-10-31T19:06:23.781Z,5.40
2022-10-31T19:08:57.392Z,4.80
2022-10-31T19:11:27.420Z,4.75
2022-10-31T19:13:55.672Z,5.22
2022-10-31T19:16:24.186Z,4.43
2022-10-31T19:18:58.678Z,5.05
2022-10-31T19:21:27.453Z,4.78
2022-10-31T19:23:57.378Z,5.78
2022-10-31T19:26:27.518Z,5.65
2022-10-31T19:28:57.268Z,6.03
2022-10-31T19:31:26.060Z,5.00
2022-10-31T19:33:54.366Z,4.88
2022-10-31T19:36:23.834Z,5.30
2022-10-31T19:38:53.702Z,5.30
2022-10-31T19:41:24.275Z,3.95
2022-10-31T19:43:54.805Z,4.70
2022-10-31T19:49:13.142Z,4.47
2022-10-31T19:51:41.461Z,4.22
2022-10-31T19:54:09.724Z,5.57
2022-10-31T19:56:38.027Z,5.70
2022-10-31T19:59:08.115Z,4.93
2022-10-31T20:01:36.472Z,4.78
2022-10-31T20:04:05.058Z,5.20
2022-10-31T20:06:35.917Z,5.80
2022-10-31T20:09:08.056Z,5.82
2022-10-31T20:11:37.972Z,4.75
2022-10-31T20:14:08.998Z,5.10
2022-10-31T20:16:37.708Z,5.75
2022-10-31T20:19:06.256Z,5.15
2022-10-31T20:21:38.869Z,5.88
2022-10-31T20:24:09.544Z,5.77
2022-10-31T20:26:39.365Z,5.60
2022-10-31T20:29:11.564Z,7.00
2022-10-31T20:31:40.038Z,5.85
2022-10-31T20:34:08.304Z,5.38
2022-10-31T20:36:37.418Z,5.60
2022-10-31T20:39:06.164Z,23.40
2022-10-31T20:41:37.862Z,25.15
2022-10-31T20:44:06.289Z,18.70
2022-10-31T20:46:35.965Z,14.38
2022-10-31T20:49:04.238Z,17.95
2022-10-31T20:51:32.532Z,21.63
2022-10-31T20:54:01.474Z,16.73
2022-10-31T20:56:31.059Z,12.60
2022-10-31T20:58:59.634Z,9.90
2022-10-31T21:01:29.727Z,9.38
2022-10-31T21:04:00.169Z,7.85
2022-10-31T21:06:29.238Z,8.43
2022-10-31T21:08:58.086Z,20.83
2022-10-31T21:11:29.268Z,22.45
2022-10-31T21:13:57.545Z,11.00
2022-10-31T21:16:27.388Z,8.35
2022-10-31T21:18:55.852Z,8.02
2022-10-31T21:21:29.091Z,9.57
2022-10-31T21:24:02.999Z,9.10
2022-10-31T21:26:34.508Z,7.85
2022-10-31T21:29:03.720Z,9.48
2022-10-31T21:31:31.965Z,6.38
2022-10-31T21:34:00.340Z,6.57
2022-10-31T21:36:30.154Z,7.50
2022-10-31T21:38:58.669Z,7.85
2022-10-31T21:41:27.106Z,6.40
2022-10-31T21:43:56.220Z,6.40
2022-10-31T21:46:26.246Z,6.28
2022-10-31T21:48:55.131Z,6.90
2022-10-31T21:51:25.401Z,6.65
2022-10-31T21:54:12.980Z,6.78
2022-10-31T21:56:41.308Z,7.72
2022-10-31T21:59:09.701Z,8.13
2022-10-31T22:01:38.776Z,6.80
2022-10-31T22:04:07.752Z,7.40
2022-10-31T22:06:37.224Z,12.32
2022-10-31T22:09:09.073Z,9.38
2022-10-31T22:11:37.817Z,9.27
2022-10-31T22:14:06.442Z,9.18
2022-10-31T22:16:37.447Z,8.52
2022-10-31T22:19:06.976Z,8.57
2022-10-31T22:21:38.928Z,8.63
2022-10-31T22:24:10.021Z,8.68
2022-10-31T22:26:38.806Z,10.27
2022-10-31T22:29:09.061Z,9.88
2022-10-31T22:31:40.069Z,10.45
2022-10-31T22:34:09.065Z,10.00
2022-10-31T22:36:37.868Z,10.63
2022-10-31T22:39:07.023Z,9.25
2022-10-31T22:41:39.906Z,8.98
2022-10-31T22:44:08.382Z,9.85
2022-10-31T22:46:39.654Z,8.65
2022-10-31T22:49:10.007Z,8.68
2022-10-31T22:51:40.044Z,8.77
2022-10-31T22:54:12.604Z,8.90
2022-10-31T22:56:42.297Z,9.00
2022-10-31T22:59:13.701Z,9.25
2022-10-31T23:01:42.125Z,8.63
2022-10-31T23:06:40.134Z,8.48
2022-10-31T23:09:10.282Z,8.38
2022-10-31T23:11:41.190Z,8.07
2022-10-31T23:14:14.029Z,8.65
2022-10-31T23:16:45.639Z,8.52
2022-10-31T23:19:16.387Z,7.93
2022-10-31T23:22:00.004Z,7.50
2022-10-31T23:24:31.065Z,7.18
2022-10-31T23:27:05.581Z,8.07
2022-10-31T23:32:02.187Z,6.95
2022-10-31T23:34:30.720Z,6.60
2022-10-31T23:36:59.049Z,5.90
2022-10-31T23:39:27.660Z,7.13
2022-10-31T23:41:55.898Z,6.57
2022-10-31T23:44:25.694Z,7.43
2022-10-31T23:46:54.289Z,6.90
2022-10-31T23:49:22.576Z,6.90
2022-10-31T23:51:51.166Z,7.30
2022-10-31T23:54:19.400Z,7.22
2022-10-31T23:56:47.611Z,7.00
2022-10-31T23:59:15.913Z,7.57
